createdAt,value
2023-02-11T00:01:08.488Z,23.60
2023-02-11T00:03:38.911Z,37.60
2023-02-11T00:06:10.336Z,21.40
2023-02-11T00:08:38.423Z,32.20
2023-02-11T00:11:06.950Z,30.60
2023-02-11T00:13:35.022Z,29.60
2023-02-11T00:16:07.935Z,23.20
2023-02-11T00:18:37.759Z,37.80
2023-02-11T00:21:10.503Z,33.60
2023-02-11T00:23:38.771Z,26.20
2023-02-11T00:26:12.378Z,35.00
2023-02-11T00:28:42.057Z,33.20
2023-02-11T00:31:10.184Z,36.60
2023-02-11T00:33:38.299Z,30.40
2023-02-11T00:36:06.697Z,32.80
2023-02-11T00:38:37.546Z,39.80
2023-02-11T00:41:05.752Z,32.40
2023-02-11T00:43:34.038Z,32.20
2023-02-11T00:46:02.099Z,32.00
2023-02-11T00:48:30.544Z,26.80
2023-02-11T00:50:58.620Z,19.80
2023-02-11T00:53:26.645Z,35.20
2023-02-11T00:55:56.110Z,28.80
2023-02-11T00:58:24.188Z,25.80
2023-02-11T01:00:58.532Z,14.60
2023-02-11T01:03:26.656Z,25.20
2023-02-11T01:05:54.675Z,34.00
2023-02-11T01:08:22.795Z,33.20
2023-02-11T01:10:57.208Z,35.20
2023-02-11T01:13:25.342Z,17.80
2023-02-11T01:15:53.705Z,21.60
2023-02-11T01:18:21.874Z,28.00
2023-02-11T01:20:50.083Z,28.00
2023-02-11T01:23:18.261Z,35.00
2023-02-11T01:25:46.660Z,32.20
2023-02-11T01:28:19.163Z,24.40
2023-02-11T01:30:47.837Z,27.00
2023-02-11T01:33:16.141Z,36.00
2023-02-11T01:35:44.428Z,28.00
2023-02-11T01:38:16.904Z,27.20
2023-02-11T01:40:49.037Z,17.40
2023-02-11T01:43:18.695Z,28.40
2023-02-11T01:46:01.326Z,31.60
2023-02-11T01:48:31.021Z,25.60
2023-02-11T01:51:03.084Z,29.80
2023-02-11T01:53:48.821Z,31.60
2023-02-11T01:56:34.549Z,25.40
2023-02-11T01:59:07.394Z,29.40
2023-02-11T02:01:38.052Z,26.40
2023-02-11T02:04:06.350Z,37.40
2023-02-11T02:06:35.917Z,26.80
2023-02-11T02:09:06.676Z,34.00
2023-02-11T02:11:34.737Z,29.00
2023-02-11T02:14:04.429Z,27.80
2023-02-11T02:16:34.058Z,39.20
2023-02-11T02:19:20.514Z,34.00
2023-02-11T02:22:21.916Z,24.20
2023-02-11T02:25:01.303Z,29.40
2023-02-11T02:27:35.830Z,24.00
2023-02-11T02:30:33.666Z,23.40
2023-02-11T02:33:21.616Z,24.80
2023-02-11T02:35:55.365Z,25.40
2023-02-11T02:38:25.544Z,31.80
2023-02-11T02:40:56.315Z,37.80
2023-02-11T02:43:24.366Z,37.80
2023-02-11T02:45:52.673Z,34.00
2023-02-11T02:48:32.071Z,23.60
2023-02-11T02:51:04.898Z,29.25
2023-02-11T02:53:37.072Z,22.00
2023-02-11T02:56:06.451Z,36.20
2023-02-11T02:59:05.236Z,34.00
2023-02-11T03:01:37.442Z,31.80
2023-02-11T03:04:12.554Z,15.80
2023-02-11T03:06:45.233Z,27.00
2023-02-11T03:09:14.941Z,33.60
2023-02-11T03:11:42.962Z,33.60
2023-02-11T03:14:12.902Z,25.00
2023-02-11T03:16:41.019Z,28.40
2023-02-11T03:19:12.702Z,28.80
2023-02-11T03:21:41.502Z,36.60
2023-02-11T03:24:11.568Z,32.80
2023-02-11T03:26:40.304Z,27.20
2023-02-11T03:29:10.787Z,34.40
2023-02-11T03:31:41.786Z,24.20
2023-02-11T03:34:14.585Z,30.60
2023-02-11T03:36:45.993Z,32.40
2023-02-11T03:39:14.585Z,24.00
2023-02-11T03:41:43.303Z,22.80
2023-02-11T03:44:11.590Z,25.00
2023-02-11T03:46:40.156Z,26.60
2023-02-11T03:49:11.680Z,26.00
2023-02-11T03:51:39.814Z,33.40
2023-02-11T03:54:11.039Z,29.60
2023-02-11T03:56:41.162Z,35.80
2023-02-11T03:59:09.455Z,22.80
2023-02-11T04:01:37.462Z,21.40
2023-02-11T04:04:06.061Z,27.60
2023-02-11T04:06:35.533Z,34.60
2023-02-11T04:09:03.780Z,23.20
2023-02-11T04:11:32.360Z,28.80
2023-02-11T04:14:00.989Z,34.80
2023-02-11T04:16:30.232Z,21.80
2023-02-11T04:18:58.826Z,41.40
2023-02-11T04:21:26.937Z,34.20
2023-02-11T04:23:56.381Z,36.00
2023-02-11T04:26:24.749Z,29.00
2023-02-11T04:28:52.810Z,36.60
2023-02-11T04:31:20.966Z,38.80
2023-02-11T04:33:49.281Z,35.80
2023-02-11T04:36:17.323Z,32.60
2023-02-11T04:38:45.413Z,35.60
2023-02-11T04:41:14.894Z,26.60
2023-02-11T04:43:42.983Z,30.80
2023-02-11T04:46:11.114Z,29.20
2023-02-11T04:48:39.279Z,34.00
2023-02-11T04:51:07.659Z,23.00
2023-02-11T04:53:35.903Z,31.60
2023-02-11T04:56:04.068Z,24.00
2023-02-11T04:58:33.699Z,29.80
2023-02-11T05:01:07.671Z,23.40
2023-02-11T05:03:35.778Z,25.20
2023-02-11T05:06:03.958Z,36.40
2023-02-11T05:08:32.500Z,28.60
2023-02-11T05:11:02.166Z,31.40
2023-02-11T05:13:30.382Z,32.60
2023-02-11T05:15:59.821Z,28.40
2023-02-11T05:18:27.905Z,26.40
2023-02-11T05:20:55.945Z,28.00
2023-02-11T05:23:24.066Z,32.80
2023-02-11T05:25:52.378Z,29.80
2023-02-11T05:28:20.564Z,29.40
2023-02-11T05:30:48.738Z,31.20
2023-02-11T05:33:18.293Z,22.80
2023-02-11T05:35:46.296Z,28.60
2023-02-11T05:38:14.380Z,25.20
2023-02-11T05:40:42.390Z,28.60
2023-02-11T05:43:10.442Z,27.80
2023-02-11T05:45:38.426Z,24.80
2023-02-11T05:48:07.095Z,22.20
2023-02-11T05:50:36.680Z,25.20
2023-02-11T05:53:05.695Z,24.40
2023-02-11T05:55:33.920Z,27.00
2023-02-11T05:58:02.358Z,28.40
2023-02-11T06:00:30.447Z,26.00
2023-02-11T06:02:58.478Z,26.20
2023-02-11T06:05:26.688Z,27.20
2023-02-11T06:07:56.329Z,16.60
2023-02-11T06:10:24.441Z,27.20
2023-02-11T06:12:52.425Z,21.60
2023-02-11T06:15:20.588Z,30.00
2023-02-11T06:17:48.644Z,26.80
2023-02-11T06:20:17.600Z,27.60
2023-02-11T06:22:45.680Z,30.60
2023-02-11T06:25:15.135Z,27.60
2023-02-11T06:27:43.527Z,25.60
2023-02-11T06:30:12.675Z,20.60
2023-02-11T06:32:45.391Z,22.80
2023-02-11T06:35:14.297Z,21.60
2023-02-11T06:37:42.372Z,22.20
2023-02-11T06:40:11.058Z,14.20
2023-02-11T06:42:40.551Z,22.40
2023-02-11T06:45:13.303Z,26.00
2023-02-11T06:47:41.673Z,22.40
2023-02-11T06:50:10.473Z,13.20
2023-02-11T06:52:38.613Z,26.60
2023-02-11T06:55:07.263Z,26.60
2023-02-11T06:57:38.119Z,25.60
2023-02-11T07:00:09.034Z,15.80
2023-02-11T07:02:37.547Z,20.40
2023-02-11T07:05:07.066Z,23.60
2023-02-11T07:07:35.204Z,23.20
2023-02-11T07:10:04.720Z,18.80
2023-02-11T07:12:33.274Z,16.80
2023-02-11T07:15:01.656Z,19.00
2023-02-11T07:17:31.310Z,23.60
2023-02-11T07:19:59.293Z,13.80
2023-02-11T07:22:27.303Z,21.40
2023-02-11T07:24:55.333Z,22.00
2023-02-11T07:27:23.368Z,21.00
2023-02-11T07:29:51.376Z,18.80
2023-02-11T07:32:19.500Z,24.40
2023-02-11T07:34:49.612Z,22.80
2023-02-11T07:37:18.347Z,19.00
2023-02-11T07:39:46.386Z,25.40
2023-02-11T07:42:14.396Z,15.80
2023-02-11T07:44:42.835Z,23.80
2023-02-11T07:47:10.788Z,20.80
2023-02-11T07:49:38.883Z,23.00
2023-02-11T07:52:08.807Z,34.20
2023-02-11T07:54:36.863Z,17.60
2023-02-11T07:57:05.100Z,24.20
2023-02-11T07:59:33.870Z,17.80
2023-02-11T08:02:01.986Z,26.60
2023-02-11T08:04:30.170Z,28.60
2023-02-11T08:06:59.273Z,22.40
2023-02-11T08:09:28.906Z,32.20
2023-02-11T08:11:56.961Z,23.00
2023-02-11T08:14:25.316Z,23.40
2023-02-11T08:16:54.666Z,21.00
2023-02-11T08:19:22.759Z,21.40
2023-02-11T08:21:51.232Z,26.20
2023-02-11T08:24:19.387Z,33.40
2023-02-11T08:26:49.599Z,26.80
2023-02-11T08:29:18.272Z,27.20
2023-02-11T08:31:47.202Z,27.40
2023-02-11T08:34:18.449Z,24.60
2023-02-11T08:36:47.561Z,31.60
2023-02-11T08:39:19.697Z,17.40
2023-02-11T08:41:50.059Z,24.80
2023-02-11T08:44:18.412Z,33.40
2023-02-11T08:46:46.853Z,16.60
2023-02-11T08:49:15.240Z,21.80
2023-02-11T08:51:43.943Z,23.80
2023-02-11T08:54:12.124Z,21.40
2023-02-11T08:56:42.641Z,18.20
2023-02-11T08:59:12.858Z,24.00
2023-02-11T09:01:41.014Z,28.20
2023-02-11T09:04:09.143Z,37.00
2023-02-11T09:06:37.516Z,22.00
2023-02-11T09:09:05.661Z,31.00
2023-02-11T09:11:35.321Z,20.20
2023-02-11T09:14:04.646Z,31.80
2023-02-11T09:16:35.018Z,38.40
2023-02-11T09:19:04.454Z,34.80
2023-02-11T09:21:35.939Z,25.40
2023-02-11T09:24:09.746Z,27.00
2023-02-11T09:26:40.887Z,33.40
2023-02-11T09:29:08.912Z,25.20
2023-02-11T09:31:38.933Z,35.20
2023-02-11T09:34:07.228Z,23.40
2023-02-11T09:36:37.483Z,29.00
2023-02-11T09:39:07.124Z,29.60
2023-02-11T09:41:40.749Z,26.80
2023-02-11T09:44:10.655Z,28.20
2023-02-11T09:46:42.289Z,28.80
2023-02-11T09:49:13.205Z,26.80
2023-02-11T09:51:42.452Z,20.00
2023-02-11T09:54:14.440Z,31.40
2023-02-11T09:56:42.807Z,23.20
2023-02-11T09:59:12.208Z,27.40
2023-02-11T10:01:43.340Z,25.40
2023-02-11T10:04:15.354Z,28.40
2023-02-11T10:06:45.099Z,23.80
2023-02-11T10:09:48.680Z,30.40
2023-02-11T10:12:23.950Z,27.60
2023-02-11T10:15:02.920Z,28.60
2023-02-11T10:17:36.417Z,31.00
2023-02-11T10:20:16.741Z,30.00
2023-02-11T10:22:46.696Z,22.80
2023-02-11T10:25:20.909Z,21.00
2023-02-11T10:27:49.079Z,26.20
2023-02-11T10:30:22.347Z,27.60
2023-02-11T10:32:53.675Z,27.40
2023-02-11T10:35:23.249Z,30.00
2023-02-11T10:37:54.164Z,25.40
2023-02-11T10:40:23.277Z,29.40
2023-02-11T10:42:55.372Z,27.40
2023-02-11T10:45:27.243Z,23.60
2023-02-11T10:47:57.198Z,28.20
2023-02-11T10:50:26.301Z,27.80
2023-02-11T10:52:54.376Z,24.20
2023-02-11T10:55:24.684Z,35.40
2023-02-11T10:57:56.588Z,25.20
2023-02-11T11:00:38.037Z,32.00
2023-02-11T11:03:16.307Z,24.20
2023-02-11T11:05:48.156Z,22.40
2023-02-11T11:08:17.986Z,25.00
2023-02-11T11:10:47.255Z,30.00
2023-02-11T11:13:28.956Z,37.20
2023-02-11T11:16:25.511Z,19.60
2023-02-11T11:19:06.620Z,24.00
2023-02-11T11:21:37.174Z,23.80
2023-02-11T11:24:07.149Z,27.20
2023-02-11T11:26:41.663Z,14.20
2023-02-11T11:29:11.732Z,32.20
2023-02-11T11:31:48.387Z,31.20
2023-02-11T11:34:22.724Z,25.20
2023-02-11T11:36:51.302Z,22.00
2023-02-11T11:39:22.282Z,32.40
2023-02-11T11:41:54.851Z,30.20
2023-02-11T11:44:28.968Z,26.60
2023-02-11T11:47:22.743Z,27.60
2023-02-11T11:49:57.789Z,28.60
2023-02-11T11:52:35.583Z,27.40
2023-02-11T11:55:06.616Z,30.80
2023-02-11T11:57:38.641Z,30.40
2023-02-11T12:00:07.983Z,33.40
2023-02-11T12:02:52.618Z,33.00
2023-02-11T12:05:25.066Z,37.20
2023-02-11T12:07:59.182Z,31.80
2023-02-11T12:10:36.697Z,22.80
2023-02-11T12:13:11.244Z,39.60
2023-02-11T12:15:42.593Z,22.00
2023-02-11T12:18:23.452Z,27.60
2023-02-11T12:21:00.759Z,33.00
2023-02-11T12:23:35.879Z,31.80
2023-02-11T12:26:13.075Z,31.40
2023-02-11T12:28:44.074Z,26.00
2023-02-11T12:31:29.304Z,27.80
2023-02-11T12:34:20.311Z,35.40
2023-02-11T12:36:57.884Z,72.80
2023-02-11T12:39:38.418Z,33.60
2023-02-11T12:42:49.400Z,18.20
2023-02-11T12:45:27.494Z,38.20
2023-02-11T12:48:08.699Z,26.60
2023-02-11T12:50:39.624Z,34.40
2023-02-11T12:53:19.206Z,36.80
2023-02-11T12:55:48.827Z,40.40
2023-02-11T12:58:20.022Z,22.20
2023-02-11T13:00:50.125Z,26.80
2023-02-11T13:03:21.076Z,44.00
2023-02-11T13:05:50.866Z,27.00
2023-02-11T13:08:22.126Z,43.20
2023-02-11T13:10:52.196Z,33.80
2023-02-11T13:13:22.576Z,24.80
2023-02-11T13:15:52.870Z,36.00
2023-02-11T13:18:44.263Z,29.40
2023-02-11T13:21:31.146Z,33.80
2023-02-11T13:24:05.682Z,29.00
2023-02-11T13:26:38.763Z,37.60
2023-02-11T13:29:14.761Z,30.60
2023-02-11T13:31:43.010Z,43.60
2023-02-11T13:34:26.116Z,32.20
2023-02-11T13:36:57.777Z,37.80
2023-02-11T13:39:27.327Z,30.40
2023-02-11T13:42:05.234Z,33.00
2023-02-11T13:44:34.843Z,28.80
2023-02-11T13:47:04.760Z,30.00
2023-02-11T13:49:38.338Z,21.60
2023-02-11T13:52:07.765Z,31.80
2023-02-11T13:54:39.238Z,27.40
2023-02-11T13:57:31.152Z,38.60
2023-02-11T13:59:59.290Z,28.80
2023-02-11T14:02:48.141Z,33.60
2023-02-11T14:05:47.678Z,28.80
2023-02-11T14:08:42.964Z,40.20
2023-02-11T14:11:46.798Z,35.00
2023-02-11T14:14:24.056Z,28.80
2023-02-11T14:17:34.576Z,29.60
2023-02-11T14:20:05.579Z,39.20
2023-02-11T14:22:42.507Z,35.20
2023-02-11T14:25:19.215Z,24.80
2023-02-11T14:27:51.617Z,39.80
2023-02-11T14:30:36.191Z,30.00
2023-02-11T14:33:12.497Z,26.20
2023-02-11T14:35:42.393Z,38.80
2023-02-11T14:38:15.168Z,24.80
2023-02-11T14:40:47.638Z,35.40
2023-02-11T14:43:19.408Z,37.60
2023-02-11T14:45:52.269Z,43.60
2023-02-11T14:48:21.333Z,33.00
2023-02-11T14:50:51.718Z,36.40
2023-02-11T14:53:21.564Z,37.20
2023-02-11T14:55:50.879Z,27.20
2023-02-11T14:58:23.215Z,37.40
2023-02-11T15:01:04.482Z,30.00
2023-02-11T15:03:36.872Z,42.80
2023-02-11T15:06:07.245Z,31.60
2023-02-11T15:08:36.600Z,38.80
2023-02-11T15:11:05.364Z,37.20
2023-02-11T15:13:35.235Z,34.40
2023-02-11T15:16:07.939Z,42.80
2023-02-11T15:18:38.824Z,41.00
2023-02-11T15:21:07.123Z,34.80
2023-02-11T15:23:35.526Z,30.80
2023-02-11T15:26:05.747Z,38.40
2023-02-11T15:28:38.355Z,39.80
2023-02-11T15:31:07.190Z,40.80
2023-02-11T15:33:35.223Z,36.00
2023-02-11T15:36:03.586Z,38.00
2023-02-11T15:38:31.691Z,31.00
2023-02-11T15:41:00.883Z,38.20
2023-02-11T15:43:43.618Z,38.60
2023-02-11T15:46:11.866Z,54.60
2023-02-11T15:48:43.559Z,36.40
2023-02-11T15:51:15.063Z,49.40
2023-02-11T15:53:43.551Z,36.00
2023-02-11T15:56:13.434Z,40.80
2023-02-11T15:58:44.382Z,47.40
2023-02-11T16:01:12.835Z,47.00
2023-02-11T16:03:41.821Z,42.20
2023-02-11T16:06:20.376Z,47.40
2023-02-11T16:09:01.691Z,45.60
2023-02-11T16:11:33.018Z,56.00
2023-02-11T16:14:05.170Z,54.20
2023-02-11T16:16:35.425Z,57.20
2023-02-11T16:19:06.883Z,39.60
2023-02-11T16:21:42.237Z,62.00
2023-02-11T16:24:19.251Z,36.00
2023-02-11T16:26:48.998Z,31.20
2023-02-11T16:29:20.313Z,39.00
2023-02-11T16:31:48.922Z,37.00
2023-02-11T16:34:18.143Z,52.40
2023-02-11T16:36:46.319Z,44.20
2023-02-11T16:39:14.378Z,39.00
2023-02-11T16:41:42.387Z,51.40
2023-02-11T16:44:10.400Z,40.00
2023-02-11T16:46:40.151Z,30.60
2023-02-11T16:49:22.972Z,38.60
2023-02-11T16:52:02.202Z,32.20
2023-02-11T16:54:30.620Z,51.40
2023-02-11T16:56:59.115Z,36.20
2023-02-11T16:59:28.333Z,37.80
2023-02-11T17:01:58.233Z,40.00
2023-02-11T17:04:28.251Z,44.60
2023-02-11T17:06:58.333Z,51.80
2023-02-11T17:09:30.575Z,45.40
2023-02-11T17:11:59.257Z,38.20
2023-02-11T17:14:27.595Z,28.80
2023-02-11T17:16:57.789Z,27.20
2023-02-11T17:19:25.797Z,39.00
2023-02-11T17:21:53.806Z,48.40
2023-02-11T17:24:21.913Z,42.40
2023-02-11T17:26:50.244Z,37.80
2023-02-11T17:29:19.560Z,37.40
2023-02-11T17:31:47.666Z,24.40
2023-02-11T17:34:17.799Z,35.60
2023-02-11T17:36:46.348Z,39.40
2023-02-11T17:39:14.558Z,48.80
2023-02-11T17:41:42.775Z,54.60
2023-02-11T17:44:12.448Z,50.20
2023-02-11T17:46:40.632Z,41.80
2023-02-11T17:49:08.714Z,50.00
2023-02-11T17:51:38.911Z,35.80
2023-02-11T17:54:07.993Z,53.00
2023-02-11T17:56:37.000Z,53.60
2023-02-11T17:59:05.097Z,47.20
2023-02-11T18:01:36.031Z,52.00
2023-02-11T18:04:04.318Z,33.20
2023-02-11T18:06:33.901Z,44.80
2023-02-11T18:09:04.447Z,51.60
2023-02-11T18:11:33.722Z,31.80
2023-02-11T18:14:01.802Z,44.20
2023-02-11T18:16:39.658Z,44.80
2023-02-11T18:19:36.772Z,43.60
2023-02-11T18:22:04.964Z,40.00
2023-02-11T18:24:35.461Z,38.60
2023-02-11T18:27:03.686Z,42.00
2023-02-11T18:29:32.198Z,40.40
2023-02-11T18:32:00.293Z,38.40
2023-02-11T18:34:28.668Z,45.00
2023-02-11T18:36:56.730Z,54.20
2023-02-11T18:39:26.498Z,41.80
2023-02-11T18:41:58.915Z,37.00
2023-02-11T18:44:27.165Z,43.40
2023-02-11T18:46:55.594Z,56.60
2023-02-11T18:49:23.555Z,53.80
2023-02-11T18:51:51.618Z,47.60
2023-02-11T18:54:19.750Z,41.00
2023-02-11T18:56:47.860Z,42.80
2023-02-11T18:59:17.338Z,48.20
2023-02-11T19:01:47.015Z,50.60
2023-02-11T19:04:19.706Z,43.00
2023-02-11T19:06:48.660Z,58.80
2023-02-11T19:09:18.051Z,43.80
2023-02-11T19:11:49.809Z,41.60
2023-02-11T19:14:21.542Z,44.00
2023-02-11T19:16:50.740Z,51.00
2023-02-11T19:19:19.195Z,39.80
2023-02-11T19:21:47.683Z,49.80
2023-02-11T19:24:18.891Z,44.60
2023-02-11T19:26:47.052Z,55.80
2023-02-11T19:29:15.001Z,54.40
2023-02-11T19:31:44.761Z,46.60
2023-02-11T19:34:14.608Z,52.40
2023-02-11T19:36:42.773Z,49.00
2023-02-11T19:39:10.819Z,39.80
2023-02-11T19:41:39.500Z,42.40
2023-02-11T19:44:07.853Z,49.40
2023-02-11T19:46:37.237Z,44.00
2023-02-11T19:49:07.077Z,46.40
2023-02-11T19:51:36.975Z,57.20
2023-02-11T19:54:05.387Z,53.80
2023-02-11T19:56:33.535Z,43.60
2023-02-11T19:59:03.301Z,47.40
2023-02-11T20:01:31.502Z,58.00
2023-02-11T20:04:00.223Z,50.00
2023-02-11T20:06:30.372Z,48.00
2023-02-11T20:08:59.493Z,52.00
2023-02-11T20:11:28.202Z,45.60
2023-02-11T20:13:56.366Z,38.80
2023-02-11T20:16:33.952Z,46.60
2023-02-11T20:19:17.960Z,46.60
2023-02-11T20:21:48.597Z,51.40
2023-02-11T20:24:17.041Z,46.40
2023-02-11T20:26:46.979Z,55.40
2023-02-11T20:29:15.390Z,47.80
2023-02-11T20:31:44.044Z,56.20
2023-02-11T20:34:12.205Z,49.20
2023-02-11T20:36:40.725Z,65.20
2023-02-11T20:39:11.528Z,54.00
2023-02-11T20:41:40.828Z,57.60
2023-02-11T20:44:09.537Z,57.40
2023-02-11T20:46:38.709Z,48.60
2023-02-11T20:49:08.749Z,48.20
2023-02-11T20:51:37.442Z,58.00
2023-02-11T20:54:06.482Z,57.00
2023-02-11T20:56:37.313Z,46.80
2023-02-11T20:59:07.643Z,37.80
2023-02-11T21:01:37.441Z,45.00
2023-02-11T21:04:07.045Z,48.20
2023-02-11T21:06:36.661Z,49.40
2023-02-11T21:09:04.915Z,47.60
2023-02-11T21:11:33.099Z,47.60
2023-02-11T21:14:04.302Z,61.60
2023-02-11T21:16:32.743Z,56.00
2023-02-11T21:19:03.070Z,51.80
2023-02-11T21:21:31.209Z,51.60
2023-02-11T21:23:59.687Z,37.80
2023-02-11T21:26:27.940Z,65.60
2023-02-11T21:29:05.587Z,60.60
2023-02-11T21:31:34.666Z,53.40
2023-02-11T21:34:05.609Z,48.80
2023-02-11T21:36:33.792Z,26.80
2023-02-11T21:39:03.867Z,42.20
2023-02-11T21:41:32.195Z,62.00
2023-02-11T21:44:00.281Z,43.80
2023-02-11T21:46:29.741Z,45.40
2023-02-11T21:48:58.359Z,41.80
2023-02-11T21:51:26.674Z,38.40
2023-02-11T21:53:55.275Z,41.20
2023-02-11T21:56:23.369Z,49.00
2023-02-11T21:58:53.304Z,55.00
2023-02-11T22:01:22.233Z,43.40
2023-02-11T22:03:54.332Z,51.40
2023-02-11T22:06:23.019Z,52.80
2023-02-11T22:08:51.207Z,55.00
2023-02-11T22:11:19.689Z,56.20
2023-02-11T22:13:48.019Z,43.20
2023-02-11T22:16:17.254Z,50.80
2023-02-11T22:18:46.511Z,47.80
2023-02-11T22:21:17.089Z,52.40
2023-02-11T22:23:45.162Z,49.80
2023-02-11T22:26:14.680Z,52.80
2023-02-11T22:28:43.260Z,48.60
2023-02-11T22:31:12.657Z,47.40
2023-02-11T22:33:40.882Z,64.80
2023-02-11T22:36:10.334Z,55.60
2023-02-11T22:38:40.110Z,48.60
2023-02-11T22:41:09.453Z,62.60
2023-02-11T22:43:37.703Z,48.00
2023-02-11T22:46:06.896Z,48.40
2023-02-11T22:48:35.131Z,52.00
2023-02-11T22:51:07.103Z,53.20
2023-02-11T22:53:35.297Z,49.60
2023-02-11T22:56:05.716Z,55.80
2023-02-11T22:58:36.233Z,37.60
2023-02-11T23:01:05.044Z,51.00
2023-02-11T23:03:33.200Z,62.20
2023-02-11T23:06:01.391Z,27.20
2023-02-11T23:08:29.403Z,43.80
2023-02-11T23:10:58.014Z,43.00
2023-02-11T23:13:27.440Z,54.60
2023-02-11T23:15:55.855Z,44.00
2023-02-11T23:18:23.966Z,38.40
2023-02-11T23:20:52.553Z,62.60
2023-02-11T23:23:20.591Z,50.60
2023-02-11T23:25:49.512Z,56.80
2023-02-11T23:28:18.658Z,54.00
2023-02-11T23:30:48.676Z,49.80
2023-02-11T23:33:16.766Z,46.60
2023-02-11T23:35:44.784Z,42.00
2023-02-11T23:38:12.883Z,47.00
2023-02-11T23:40:43.944Z,47.80
2023-02-11T23:43:11.982Z,59.00
2023-02-11T23:45:40.049Z,48.40
2023-02-11T23:48:09.561Z,51.60
2023-02-11T23:50:39.624Z,33.40
2023-02-11T23:53:07.729Z,54.20
2023-02-11T23:55:39.955Z,43.20
2023-02-11T23:58:07.992Z,57.20
